Time;durP1;ratioP1;P1;durP2;ratioP2;P2;SDS_P1;SDS_P2;PMS_P1;PMS_P2;Temp;Humidity;BMP_temperature;BMP_pressure;BME280_temperature;BME280_humidity;BME280_pressure;Samples;Min_cycle;Max_cycle;Signal;HPM_P1;HPM_P2
2021/08/14 00:02:16;;;;;;;20.88;11.57;;;;;;;16.23;42.75;99817.94;5078886;28;20410;-75
2021/08/14 00:04:42;;;;;;;22.90;10.90;;;;;;;16.25;42.47;99832.13;5062703;28;20048;-77
2021/08/14 00:07:08;;;;;;;20.85;11.48;;;;;;;16.25;42.84;99837.53;5096481;28;20100;-76
2021/08/14 00:09:34;;;;;;;37.63;12.10;;;;;;;16.21;42.70;99829.84;5045399;28;20097;-75
2021/08/14 00:12:01;;;;;;;25.83;12.18;;;;;;;16.09;42.70;99818.41;5079654;28;20121;-75
2021/08/14 00:14:28;;;;;;;23.13;11.63;;;;;;;16.10;42.95;99830.91;5095975;28;20052;-76
2021/08/14 00:16:54;;;;;;;33.85;11.90;;;;;;;16.04;42.76;99834.19;5062168;28;20494;-76
2021/08/14 00:19:20;;;;;;;25.95;11.75;;;;;;;16.01;43.01;99839.84;5062304;28;20122;-76
2021/08/14 00:21:46;;;;;;;20.17;11.70;;;;;;;16.02;43.00;99847.81;5062288;28;20047;-76
2021/08/14 00:24:12;;;;;;;18.40;11.18;;;;;;;16.00;43.22;99843.56;5078430;28;20123;-77
2021/08/14 00:26:38;;;;;;;25.95;10.75;;;;;;;15.94;43.31;99844.97;5045215;28;20502;-76
2021/08/14 00:29:04;;;;;;;21.35;11.18;;;;;;;15.88;43.04;99840.19;5095821;28;20135;-76
2021/08/14 00:31:30;;;;;;;34.55;10.43;;;;;;;15.87;43.19;99838.47;5045113;28;20036;-76
2021/08/14 00:33:56;;;;;;;25.63;11.38;;;;;;;15.86;43.66;99835.91;5045287;28;20094;-76
2021/08/14 00:36:23;;;;;;;23.50;11.80;;;;;;;15.88;43.28;99840.19;5112140;28;20100;-77
2021/08/14 00:38:48;;;;;;;21.10;8.98;;;;;;;15.89;43.48;99847.25;5078144;28;20130;-76
2021/08/14 00:41:14;;;;;;;27.98;10.65;;;;;;;15.86;43.34;99846.69;5094903;28;20135;-76
2021/08/14 00:43:40;;;;;;;17.88;9.63;;;;;;;15.83;43.22;99833.50;5094866;28;20095;-76
2021/08/14 00:46:06;;;;;;;33.40;10.73;;;;;;;15.90;43.52;99848.94;5078160;28;20107;-76
2021/08/14 00:48:33;;;;;;;29.35;9.68;;;;;;;15.90;43.64;99856.19;5078116;28;20040;-77
2021/08/14 00:50:58;;;;;;;22.60;10.35;;;;;;;15.94;43.79;99838.72;5061455;28;20038;-76
2021/08/14 00:53:24;;;;;;;24.33;10.65;;;;;;;16.12;43.36;99847.78;5044581;28;20048;-77
2021/08/14 00:55:51;;;;;;;28.27;10.55;;;;;;;16.11;43.37;99846.09;5095172;28;20560;-77
2021/08/14 00:58:17;;;;;;;18.88;8.93;;;;;;;16.14;42.93;99848.50;5061434;28;20032;-77
2021/08/14 01:00:43;;;;;;;23.02;10.20;;;;;;;16.22;43.02;99853.16;5044825;28;20048;-77
2021/08/14 01:03:10;;;;;;;17.73;9.18;;;;;;;16.31;42.87;99841.47;5077865;28;20052;-76
2021/08/14 01:05:47;;;;;;;19.63;9.18;;;;;;;16.41;42.35;99855.78;5044429;28;20062;-76
2021/08/14 01:08:16;;;;;;;21.90;8.60;;;;;;;16.54;42.14;99855.44;5078389;28;20071;-76
2021/08/14 01:10:42;;;;;;;;;;;;;;;16.61;42.14;99856.53;5044945;28;20050;-76
2021/08/14 01:13:08;;;;;;;20.02;8.90;;;;;;;16.73;42.31;99858.06;5060073;28;19916;-76
2021/08/14 01:15:34;;;;;;;18.67;9.48;;;;;;;16.89;41.60;99856.59;5078051;28;20078;-77
2021/08/14 01:18:01;;;;;;;25.48;8.63;;;;;;;16.94;41.25;99849.72;5044463;28;20067;-76
2021/08/14 01:20:27;;;;;;;27.80;8.52;;;;;;;16.94;41.04;99859.69;5094271;28;20043;-77
2021/08/14 01:22:53;;;;;;;13.73;7.70;;;;;;;16.96;41.21;99852.28;5077742;28;20104;-76
2021/08/14 01:25:20;;;;;;;42.45;19.25;;;;;;;17.05;41.21;99856.78;5027581;28;20044;-76
2021/08/14 01:27:46;;;;;;;17.88;9.27;;;;;;;17.07;40.96;99862.88;5094163;28;20036;-76
2021/08/14 01:30:13;;;;;;;18.48;8.23;;;;;;;17.17;41.25;99866.38;5077282;28;20085;-77
2021/08/14 01:32:39;;;;;;;15.20;7.70;;;;;;;17.32;41.27;99865.84;5060780;28;20044;-76
2021/08/14 01:35:06;;;;;;;20.05;8.10;;;;;;;17.48;40.78;99868.69;5043999;28;20146;-76
2021/08/14 01:37:32;;;;;;;35.05;8.38;;;;;;;17.45;40.40;99860.88;5060842;28;20048;-76
2021/08/14 01:39:59;;;;;;;21.20;7.55;;;;;;;17.56;40.61;99870.63;5076912;28;20437;-77
2021/08/14 01:42:25;;;;;;;16.58;7.53;;;;;;;17.50;40.41;99861.28;5060534;28;20044;-76
2021/08/14 01:44:50;;;;;;;22.17;8.27;;;;;;;17.46;40.61;99866.16;5043525;28;20139;-76
2021/08/14 01:47:17;;;;;;;22.67;7.18;;;;;;;17.44;40.61;99887.06;5043738;28;20047;-77
2021/08/14 01:49:43;;;;;;;19.42;8.15;;;;;;;17.29;41.11;99879.66;5027341;28;20044;-77
2021/08/14 01:52:13;;;;;;;19.25;7.85;;;;;;;17.43;40.58;99892.66;5060303;28;20044;-78
2021/08/14 01:54:39;;;;;;;21.05;7.85;;;;;;;17.42;40.71;99899.06;5077196;28;20158;-75
2021/08/14 01:57:05;;;;;;;21.17;8.52;;;;;;;17.39;41.12;99910.16;5077111;28;20410;-77
2021/08/14 01:59:32;;;;;;;19.27;8.40;;;;;;;17.40;41.17;99901.06;5093900;28;20121;-77
2021/08/14 02:01:58;;;;;;;19.10;8.20;;;;;;;17.42;41.16;99896.34;5060306;28;20046;-77
2021/08/14 02:04:24;;;;;;;27.33;9.02;;;;;;;17.39;41.19;99892.09;5059999;28;20047;-77
2021/08/14 02:06:50;;;;;;;18.77;9.15;;;;;;;17.38;41.12;99878.75;5060240;28;20040;-76
2021/08/14 02:09:16;;;;;;;22.27;11.18;;;;;;;17.45;40.76;99882.50;5076855;28;20043;-76
2021/08/14 02:11:42;;;;;;;25.33;11.32;;;;;;;17.42;40.85;99891.81;5076684;28;20055;-76
2021/08/14 02:14:08;;;;;;;30.27;12.98;;;;;;;17.24;41.15;99897.19;5059904;28;20380;-77
2021/08/14 02:16:34;;;;;;;39.03;12.40;;;;;;;17.46;40.67;99908.56;5076621;28;20503;-76
2021/08/14 02:19:01;;;;;;;30.05;13.77;;;;;;;17.61;40.17;99907.03;5059906;28;20136;-77
2021/08/14 02:21:27;;;;;;;33.75;14.10;;;;;;;17.54;39.97;99884.31;5059544;28;20421;-77
2021/08/14 02:23:53;;;;;;;32.30;13.63;;;;;;;17.65;40.27;99896.75;5093083;28;20044;-77
2021/08/14 02:26:19;;;;;;;31.90;14.45;;;;;;;17.82;39.93;99908.59;5059992;28;20525;-77
2021/08/14 02:28:44;;;;;;;45.55;14.55;;;;;;;17.84;39.24;99890.38;5042903;28;20570;-76
2021/08/14 02:31:11;;;;;;;30.48;13.38;;;;;;;17.97;39.17;99904.31;5059241;28;20040;-76
2021/08/14 02:33:37;;;;;;;31.67;13.60;;;;;;;18.18;38.68;99914.81;5109628;28;20490;-77
2021/08/14 02:36:03;;;;;;;30.98;13.20;;;;;;;18.29;38.43;99924.53;5093301;28;20044;-77
2021/08/14 02:38:29;;;;;;;32.90;11.90;;;;;;;18.41;38.24;99921.38;5042761;28;20059;-77
2021/08/14 02:40:55;;;;;;;27.13;11.95;;;;;;;18.45;37.63;99927.34;5043187;28;20047;-77
2021/08/14 02:43:21;;;;;;;31.15;12.48;;;;;;;18.40;37.48;99913.44;5075757;28;20056;-77
2021/08/14 02:45:47;;;;;;;32.83;11.93;;;;;;;18.45;37.72;99922.78;5059359;28;20043;-78
2021/08/14 02:48:14;;;;;;;22.23;10.52;;;;;;;18.39;37.26;99917.13;5093156;28;20077;-77
2021/08/14 02:50:43;;;;;;;28.85;11.20;;;;;;;18.45;37.25;99911.09;5092638;28;20044;-77
2021/08/14 02:53:10;;;;;;;24.85;10.60;;;;;;;18.65;37.13;99920.72;5075665;28;20036;-76
2021/08/14 02:55:36;;;;;;;32.30;10.60;;;;;;;18.82;36.72;99912.69;5075728;28;20079;-78
2021/08/14 02:58:02;;;;;;;36.30;11.13;;;;;;;18.91;36.53;99917.97;5058611;28;20063;-77
2021/08/14 03:00:29;;;;;;;30.17;10.50;;;;;;;18.97;36.28;99916.50;5075536;28;20063;-76
2021/08/14 03:02:55;;;;;;;31.23;10.43;;;;;;;19.01;36.37;99917.84;5075610;28;20071;-78
2021/08/14 03:05:21;;;;;;;21.13;10.32;;;;;;;18.97;36.54;99910.22;5042335;28;20067;-77
2021/08/14 03:07:47;;;;;;;25.20;10.32;;;;;;;19.22;36.28;99916.56;5092505;28;20078;-76
2021/08/14 03:10:13;;;;;;;30.33;10.13;;;;;;;19.22;35.99;99908.44;5075309;28;20050;-76
2021/08/14 03:12:39;;;;;;;30.27;10.05;;;;;;;19.28;35.88;99915.91;5092063;28;20067;-77
2021/08/14 03:15:06;;;;;;;37.28;10.40;;;;;;;19.04;36.17;99879.59;5091705;28;20044;-76
2021/08/14 03:17:32;;;;;;;26.90;10.30;;;;;;;19.23;36.03;99918.28;5075234;28;20085;-77
2021/08/14 03:20:00;;;;;;;31.63;9.50;;;;;;;19.16;35.88;99913.50;5042019;28;20087;-78
2021/08/14 03:22:26;;;;;;;29.25;9.63;;;;;;;19.10;36.15;99906.03;5026018;28;20131;-77
2021/08/14 03:24:52;;;;;;;27.08;10.70;;;;;;;19.08;36.36;99907.22;5058627;28;20078;-76
2021/08/14 03:27:18;;;;;;;22.48;10.13;;;;;;;19.23;36.21;99904.72;5075329;28;20048;-77
2021/08/14 03:29:44;;;;;;;19.98;9.70;;;;;;;19.29;36.13;99910.31;5074902;28;20043;-78
2021/08/14 03:32:09;;;;;;;27.23;9.88;;;;;;;19.37;35.85;99906.81;5091920;28;20039;-78
2021/08/14 03:34:36;;;;;;;22.83;10.30;;;;;;;19.52;35.76;99909.69;5058099;28;20051;-79
2021/08/14 03:37:02;;;;;;;18.92;9.40;;;;;;;19.62;35.42;99911.28;5058316;28;20050;-78
2021/08/14 03:39:28;;;;;;;19.45;9.43;;;;;;;19.58;35.00;99901.75;5074943;28;20407;-76
2021/08/14 03:41:53;;;;;;;30.48;10.20;;;;;;;19.68;35.00;99911.66;5058588;28;20052;-78
2021/08/14 03:44:20;;;;;;;32.13;10.80;;;;;;;19.75;35.64;99912.69;5091239;28;20467;-76
2021/08/14 03:46:45;;;;;;;20.67;10.85;;;;;;;19.77;35.43;99902.50;5058077;28;20066;-76
2021/08/14 03:49:11;;;;;;;36.05;13.77;;;;;;;19.89;35.25;99901.97;5091174;28;20404;-77
2021/08/14 03:51:37;;;;;;;34.10;13.20;;;;;;;19.96;35.34;99902.16;5091434;28;20040;-78
2021/08/14 03:54:03;;;;;;;24.58;11.25;;;;;;;20.09;35.08;99907.94;5057984;28;20048;-77
2021/08/14 03:56:29;;;;;;;23.92;11.10;;;;;;;20.25;35.43;99901.63;5075185;28;20418;-77
2021/08/14 03:58:55;;;;;;;23.00;11.52;;;;;;;20.43;34.91;99916.91;5057915;28;20410;-80
2021/08/14 04:01:21;;;;;;;27.98;11.30;;;;;;;20.44;34.63;99894.97;5058150;28;20044;-77
2021/08/14 04:03:47;;;;;;;28.10;11.27;;;;;;;20.57;34.04;99916.19;5091498;28;20047;-77
2021/08/14 04:06:13;;;;;;;28.80;11.60;;;;;;;20.38;34.60;99911.94;5091532;28;20047;-75
2021/08/14 04:08:39;;;;;;;24.23;12.27;;;;;;;20.31;34.86;99917.25;5091142;28;20079;-76
2021/08/14 04:11:06;;;;;;;29.40;11.50;;;;;;;20.37;34.87;99913.81;5092695;28;20087;-76
2021/08/14 04:13:32;;;;;;;24.30;10.70;;;;;;;20.53;34.93;99909.41;5085627;28;20117;-75
2021/08/14 04:15:59;;;;;;;44.83;11.43;;;;;;;20.63;35.01;99909.22;5078373;28;20394;-74
2021/08/14 04:18:25;;;;;;;27.88;10.85;;;;;;;20.77;35.00;99916.66;5045082;28;20062;-76
2021/08/14 04:20:51;;;;;;;23.08;11.27;;;;;;;20.84;34.72;99906.81;5045001;28;20035;-77
2021/08/14 04:23:17;;;;;;;40.85;11.90;;;;;;;20.84;35.00;99913.06;5044621;28;20400;-76
2021/08/14 04:25:42;;;;;;;34.88;11.32;;;;;;;21.01;34.78;99915.72;5094710;28;20104;-74
2021/08/14 04:28:09;;;;;;;29.98;10.45;;;;;;;21.08;34.63;99897.69;5094938;28;20096;-75
2021/08/14 04:30:35;;;;;;;30.52;10.75;;;;;;;21.16;34.60;99899.53;5094587;28;20120;-76
2021/08/14 04:33:01;;;;;;;20.23;10.52;;;;;;;21.36;34.17;99916.25;5078012;28;20051;-76
2021/08/14 04:35:27;;;;;;;27.65;10.15;;;;;;;21.35;34.40;99909.97;5094677;28;20513;-78
2021/08/14 04:37:53;;;;;;;28.02;9.77;;;;;;;21.48;34.26;99912.97;5094771;28;20043;-76
2021/08/14 04:40:19;;;;;;;27.73;10.13;;;;;;;21.56;34.17;99912.06;5111537;28;20048;-77
2021/08/14 04:42:45;;;;;;;31.63;9.90;;;;;;;21.68;34.07;99916.06;5093752;28;20092;-77
2021/08/14 04:45:12;;;;;;;28.10;10.30;;;;;;;21.79;34.11;99909.38;5094469;28;20126;-76
2021/08/14 04:47:37;;;;;;;33.90;10.30;;;;;;;21.86;34.04;99902.16;5080580;28;20047;-76
2021/08/14 04:50:05;;;;;;;30.25;9.90;;;;;;;21.95;33.84;99901.06;5098706;28;20128;-79
2021/08/14 04:52:31;;;;;;;24.70;9.85;;;;;;;22.12;33.78;99906.38;5065220;28;20047;-77
2021/08/14 04:54:58;;;;;;;21.67;9.48;;;;;;;22.13;33.78;99886.28;5098980;28;20043;-77
2021/08/14 04:57:23;;;;;;;25.38;8.70;;;;;;;22.22;33.56;99898.81;5098462;28;20059;-77
2021/08/14 04:59:50;;;;;;;21.35;8.75;;;;;;;22.29;33.53;99903.34;5098362;28;20090;-76
2021/08/14 05:02:16;;;;;;;18.55;8.82;;;;;;;22.31;33.21;99892.28;5114617;28;20531;-76
2021/08/14 05:04:42;;;;;;;27.88;8.73;;;;;;;22.42;33.58;99902.72;5097726;28;20039;-76
2021/08/14 05:07:09;;;;;;;26.60;9.10;;;;;;;22.49;33.29;99900.06;5115649;27;20475;-75
2021/08/14 05:09:36;;;;;;;20.05;8.20;;;;;;;22.62;32.69;99892.13;5114767;28;20130;-77
2021/08/14 05:12:03;;;;;;;29.13;7.97;;;;;;;22.76;32.55;99904.91;5081710;28;20040;-76
2021/08/14 05:14:28;;;;;;;24.38;7.78;;;;;;;22.88;32.63;99894.38;5098411;28;20073;-77
2021/08/14 05:16:54;;;;;;;18.75;8.27;;;;;;;23.07;32.15;99900.31;5098129;28;20051;-77
2021/08/14 05:19:20;;;;;;;12.18;7.18;;;;;;;23.07;31.97;99889.41;5080557;28;20039;-77
2021/08/14 05:21:47;;;;;;;22.25;7.72;;;;;;;23.28;32.11;99916.72;5088575;28;20490;-78
2021/08/14 05:24:12;;;;;;;22.27;7.53;;;;;;;23.35;31.31;99898.56;5060917;28;20031;-77
2021/08/14 05:26:39;;;;;;;14.30;7.30;;;;;;;23.51;31.71;99908.41;5077183;28;20046;-76
2021/08/14 05:29:04;;;;;;;24.30;7.90;;;;;;;23.73;31.33;99907.41;5061070;28;20059;-76
2021/08/14 05:31:30;;;;;;;14.90;7.35;;;;;;;23.87;30.79;99913.84;5093611;28;20477;-77
2021/08/14 05:34:02;;;;;;;25.40;7.93;;;;;;;24.03;30.65;99911.88;5095421;28;20396;-77
2021/08/14 05:36:29;;;;;;;22.77;7.13;;;;;;;24.09;30.38;99913.84;5062184;28;20036;-77
2021/08/14 05:38:55;;;;;;;18.85;7.80;;;;;;;24.24;30.37;99904.50;5043779;28;20130;-75
2021/08/14 05:41:21;;;;;;;19.90;7.70;;;;;;;24.54;30.33;99911.72;5094405;28;20054;-76
2021/08/14 05:43:47;;;;;;;23.70;8.07;;;;;;;24.63;30.05;99902.28;5077455;28;20078;-78
2021/08/14 05:46:13;;;;;;;31.60;7.95;;;;;;;24.89;29.63;99924.31;5078250;28;20406;-76
2021/08/14 05:48:39;;;;;;;17.38;7.07;;;;;;;25.00;29.45;99900.19;5093843;28;20044;-77
2021/08/14 05:51:04;;;;;;;22.75;8.27;;;;;;;25.13;29.21;99912.09;5077266;28;20181;-77
2021/08/14 05:53:31;;;;;;;22.48;8.60;;;;;;;25.27;28.69;99903.91;5095036;28;20589;-77
2021/08/14 05:55:57;;;;;;;16.92;8.07;;;;;;;25.45;28.37;99906.94;5060754;28;20093;-78
2021/08/14 05:58:24;;;;;;;17.42;8.07;;;;;;;25.65;27.93;99896.03;5043820;28;20110;-77
2021/08/14 06:00:50;;;;;;;19.80;8.35;;;;;;;25.78;27.10;99898.84;5060339;28;20055;-77
2021/08/14 06:03:16;;;;;;;24.65;8.55;;;;;;;25.92;26.82;99894.22;5093338;28;20134;-76
2021/08/14 06:05:45;;;;;;;23.65;7.68;;;;;;;26.07;26.56;99894.88;5093072;28;20055;-77
2021/08/14 06:08:11;;;;;;;19.95;7.82;;;;;;;26.27;26.58;99894.88;5060225;28;20521;-77
2021/08/14 06:10:37;;;;;;;15.30;7.72;;;;;;;26.34;26.40;99884.75;5076423;28;20130;-76
2021/08/14 06:13:03;;;;;;;21.13;8.82;;;;;;;26.48;25.87;99879.25;5092311;28;20039;-76
2021/08/14 06:15:29;;;;;;;19.55;7.90;;;;;;;26.67;26.04;99883.91;5060000;28;20044;-77
2021/08/14 06:17:55;;;;;;;21.08;7.75;;;;;;;26.76;25.21;99871.63;5076301;28;20414;-81
2021/08/14 06:20:21;;;;;;;20.85;7.88;;;;;;;26.84;24.87;99870.53;5059741;28;20051;-78
2021/08/14 06:22:47;;;;;;;14.73;8.13;;;;;;;26.66;24.98;99862.16;5093074;28;20131;-77
2021/08/14 06:25:13;;;;;;;27.58;8.82;;;;;;;26.95;24.88;99866.28;5076297;28;20044;-77
2021/08/14 06:27:40;;;;;;;21.70;9.50;;;;;;;27.21;24.94;99868.94;5076481;28;20043;-77
2021/08/14 06:30:07;;;;;;;19.17;8.15;;;;;;;27.46;24.64;99854.47;5043112;28;20491;-80
2021/08/14 06:32:33;;;;;;;15.73;8.20;;;;;;;27.60;24.32;99853.31;5026396;28;20075;-78
2021/08/14 06:34:59;;;;;;;21.50;8.05;;;;;;;27.61;23.75;99849.53;5092839;28;20419;-78
2021/08/14 06:37:25;;;;;;;16.27;7.95;;;;;;;27.64;23.20;99845.47;5076044;28;20043;-78
2021/08/14 06:39:51;;;;;;;26.60;9.13;;;;;;;27.75;23.76;99856.63;5042812;28;20036;-78
2021/08/14 06:42:16;;;;;;;18.60;8.38;;;;;;;27.96;23.16;99857.31;5109477;28;20050;-76
2021/08/14 06:44:43;;;;;;;21.63;8.30;;;;;;;28.11;23.19;99846.84;5075553;28;20113;-78
2021/08/14 06:47:09;;;;;;;18.70;7.63;;;;;;;28.19;22.94;99831.97;5075676;28;20122;-78
2021/08/14 06:49:35;;;;;;;12.88;7.32;;;;;;;28.31;21.40;99844.72;5075711;28;20048;-77
2021/08/14 06:52:00;;;;;;;17.17;8.20;;;;;;;28.30;20.96;99829.31;5074582;28;20039;-77
2021/08/14 06:54:26;;;;;;;17.70;8.18;;;;;;;28.56;21.20;99843.88;5039955;28;20050;-78
2021/08/14 06:56:52;;;;;;;18.52;8.30;;;;;;;28.65;20.92;99831.50;5089633;28;20112;-77
2021/08/14 06:59:18;;;;;;;13.48;7.25;;;;;;;28.79;20.78;99833.03;5089257;28;20055;-78
2021/08/14 07:01:44;;;;;;;15.98;7.40;;;;;;;28.84;20.56;99818.56;5039597;28;20055;-78
2021/08/14 07:04:10;;;;;;;18.33;7.07;;;;;;;29.13;20.67;99827.16;5038650;28;20109;-77
2021/08/14 07:06:36;;;;;;;18.35;7.13;;;;;;;29.19;19.64;99824.31;5073199;28;20052;-78
2021/08/14 07:09:02;;;;;;;15.88;6.65;;;;;;;29.23;19.10;99816.44;5024181;28;20075;-77
2021/08/14 07:11:28;;;;;;;18.58;6.72;;;;;;;29.36;18.67;99820.91;5024922;28;20064;-77
2021/08/14 07:13:54;;;;;;;14.68;6.70;;;;;;;29.45;18.36;99830.50;5075609;28;20113;-77
2021/08/14 07:16:20;;;;;;;15.32;7.50;;;;;;;29.60;18.80;99825.44;5042969;28;20508;-78
2021/08/14 07:18:47;;;;;;;17.98;7.13;;;;;;;29.43;17.07;99829.91;5093200;28;20044;-79
2021/08/14 07:21:12;;;;;;;14.38;6.93;;;;;;;29.43;17.27;99819.72;5091856;28;20047;-78
2021/08/14 07:23:38;;;;;;;13.60;6.47;;;;;;;29.50;17.64;99811.38;5058675;28;20399;-79
2021/08/14 07:26:04;;;;;;;16.27;6.43;;;;;;;29.76;17.29;99810.97;5092053;28;20552;-78
2021/08/14 07:28:30;;;;;;;14.35;6.97;;;;;;;29.94;18.19;99812.81;5091601;28;20062;-78
2021/08/14 07:30:56;;;;;;;15.95;7.05;;;;;;;30.14;17.73;99812.47;5041510;28;20068;-78
2021/08/14 07:33:22;;;;;;;16.20;6.82;;;;;;;30.20;16.89;99807.91;5074886;28;20039;-78
2021/08/14 07:35:48;;;;;;;12.70;6.47;;;;;;;30.21;16.29;99815.13;5075011;28;20044;-79
2021/08/14 07:38:14;;;;;;;12.77;6.72;;;;;;;29.98;16.54;99799.41;5091833;28;20425;-79
2021/08/14 07:40:40;;;;;;;10.43;6.70;;;;;;;30.11;16.69;99796.38;5074705;28;20100;-80
2021/08/14 07:43:09;;;;;;;16.35;6.68;;;;;;;30.20;16.52;99788.63;5092525;28;20060;-78
2021/08/14 07:45:35;;;;;;;15.93;5.90;;;;;;;30.25;16.19;99780.47;5075267;28;20044;-78
2021/08/14 07:48:07;;;;;;;12.48;6.82;;;;;;;30.54;16.58;99786.94;5041202;28;20043;-78
2021/08/14 07:50:33;;;;;;;13.43;6.80;;;;;;;30.79;16.32;99786.66;5058466;28;20051;-78
2021/08/14 07:53:00;;;;;;;20.58;6.82;;;;;;;30.92;15.95;99771.75;5058052;28;20055;-79
2021/08/14 07:55:26;;;;;;;15.55;6.32;;;;;;;31.05;15.48;99778.88;5091619;28;20134;-79
2021/08/14 07:57:52;;;;;;;9.35;6.45;;;;;;;31.17;15.86;99783.25;5058107;28;20036;-77
2021/08/14 08:00:23;;;;;;;17.02;6.20;;;;;;;30.77;15.47;99776.91;5041736;28;20509;-79
2021/08/14 08:02:49;;;;;;;12.90;6.47;;;;;;;30.86;15.24;99792.88;5058161;28;20055;-78
2021/08/14 08:05:15;;;;;;;20.33;6.07;;;;;;;30.55;15.50;99777.56;5091613;28;20044;-77
2021/08/14 08:07:43;;;;;;;17.45;6.60;;;;;;;30.76;15.35;99780.78;5041408;28;20094;-78
2021/08/14 08:10:13;;;;;;;10.90;6.75;;;;;;;30.84;15.51;99764.69;5074991;28;20044;-79
2021/08/14 08:12:39;;;;;;;24.10;6.90;;;;;;;31.26;15.85;99775.44;5074450;28;20047;-78
2021/08/14 08:15:06;;;;;;;15.90;6.75;;;;;;;31.60;15.38;99770.81;5074448;28;20139;-77
2021/08/14 08:17:32;;;;;;;12.00;5.93;;;;;;;31.80;14.80;99775.00;5074581;28;20036;-78
2021/08/14 08:19:58;;;;;;;17.75;7.20;;;;;;;31.90;15.01;99765.00;5074528;28;20525;-77
2021/08/14 08:22:24;;;;;;;16.35;7.03;;;;;;;31.87;15.21;99756.34;5077015;28;20115;-78
2021/08/14 08:24:50;;;;;;;17.42;6.95;;;;;;;32.01;15.02;99759.59;5045142;28;20040;-79
2021/08/14 08:27:16;;;;;;;14.02;6.55;;;;;;;31.91;15.13;99757.53;5044903;28;20442;-77
2021/08/14 08:29:42;;;;;;;12.82;6.53;;;;;;;32.13;15.14;99752.88;5061680;28;20044;-76
2021/08/14 08:32:08;;;;;;;16.52;6.90;;;;;;;32.33;15.08;99762.56;5061631;28;20062;-77
2021/08/14 08:34:34;;;;;;;10.45;6.40;;;;;;;32.43;14.81;99757.22;5094693;28;20158;-78
2021/08/14 08:37:00;;;;;;;13.43;6.40;;;;;;;32.73;14.78;99739.31;5078358;28;20586;-78
2021/08/14 08:39:28;;;;;;;11.02;6.05;;;;;;;33.03;14.45;99749.94;5078198;28;20121;-77
2021/08/14 08:41:56;;;;;;;10.90;6.60;;;;;;;33.21;13.90;99740.41;5078461;28;20048;-77
2021/08/14 08:44:22;;;;;;;12.57;6.53;;;;;;;33.07;14.02;99738.06;5045378;28;20060;-77
2021/08/14 08:46:48;;;;;;;13.00;6.28;;;;;;;33.09;13.69;99726.72;5078414;28;20470;-77
2021/08/14 08:49:15;;;;;;;10.35;6.45;;;;;;;33.34;13.98;99734.44;5077961;28;20513;-77
2021/08/14 08:51:41;;;;;;;15.45;6.55;;;;;;;33.52;13.97;99731.31;5077749;28;20040;-78
2021/08/14 08:54:07;;;;;;;12.80;6.72;;;;;;;33.53;13.00;99735.75;5061167;28;20085;-77
2021/08/14 08:56:33;;;;;;;16.52;6.35;;;;;;;33.36;13.02;99732.22;5077858;28;20379;-76
2021/08/14 08:59:00;;;;;;;24.55;6.70;;;;;;;33.24;13.50;99717.72;5060862;28;20044;-77
2021/08/14 09:01:25;;;;;;;12.07;6.22;;;;;;;33.30;13.17;99733.31;5027977;28;20062;-78
2021/08/14 09:03:51;;;;;;;17.17;6.85;;;;;;;33.10;12.91;99718.16;5078025;28;20490;-76
2021/08/14 09:06:19;;;;;;;14.90;6.43;;;;;;;33.44;13.39;99711.53;5077531;28;20052;-78
2021/08/14 09:09:06;;;;;;;15.13;6.88;;;;;;;33.80;13.18;99704.34;5077934;28;20055;-77
2021/08/14 09:11:32;;;;;;;14.27;6.90;;;;;;;33.76;13.10;99708.78;5077330;28;20047;-77
2021/08/14 09:14:04;;;;;;;15.45;6.90;;;;;;;33.48;12.94;99713.56;5061362;28;20290;-77
2021/08/14 09:16:30;;;;;;;13.95;6.43;;;;;;;33.46;13.55;99693.56;5061284;28;20118;-77
2021/08/14 09:18:59;;;;;;;17.90;6.78;;;;;;;33.68;13.00;99700.94;5044189;28;20132;-77
2021/08/14 09:21:28;;;;;;;12.40;6.05;;;;;;;34.02;13.08;99701.47;5077955;28;20062;-78
2021/08/14 09:23:54;;;;;;;13.05;6.40;;;;;;;34.15;12.94;99689.06;5094992;28;20517;-76
2021/08/14 09:26:20;;;;;;;10.18;6.47;;;;;;;34.07;12.82;99687.63;5077129;28;20040;-76
2021/08/14 09:28:46;;;;;;;13.57;5.80;;;;;;;34.24;13.67;99693.84;5060453;28;20142;-78
2021/08/14 09:31:12;;;;;;;9.40;6.15;;;;;;;34.50;13.00;99683.72;5077519;28;20040;-77
2021/08/14 09:33:38;;;;;;;11.45;7.00;;;;;;;34.65;12.38;99684.88;5076036;28;20039;-78
2021/08/14 09:36:08;;;;;;;18.50;7.00;;;;;;;34.43;11.87;99685.88;5077535;28;20127;-76
2021/08/14 09:38:48;;;;;;;14.38;7.97;;;;;;;34.32;12.13;99681.38;5060251;28;20040;-75
2021/08/14 09:41:15;;;;;;;9.68;7.15;;;;;;;34.46;12.42;99685.34;5043836;28;20556;-75
2021/08/14 09:43:42;;;;;;;12.73;7.20;;;;;;;34.67;12.55;99677.09;5094818;28;20063;-76
2021/08/14 09:46:08;;;;;;;12.95;7.90;;;;;;;35.00;12.35;99684.97;5027417;28;20494;-76
2021/08/14 09:48:34;;;;;;;12.40;7.15;;;;;;;34.79;11.89;99675.75;5060485;28;20040;-75
2021/08/14 09:51:00;;;;;;;12.50;6.97;;;;;;;34.78;11.78;99678.78;5076712;28;20036;-75
2021/08/14 09:53:28;;;;;;;13.55;6.97;;;;;;;34.89;12.04;99674.09;5060214;28;20406;-76
2021/08/14 09:56:11;;;;;;;11.02;7.25;;;;;;;35.00;12.11;99675.81;5060121;28;20128;-76
2021/08/14 09:58:38;;;;;;;11.65;7.22;;;;;;;35.34;11.55;99667.78;5076785;28;20436;-76
2021/08/14 10:01:04;;;;;;;9.80;7.05;;;;;;;35.66;12.04;99661.13;5076714;28;20449;-76
2021/08/14 10:03:31;;;;;;;14.85;7.70;;;;;;;36.09;11.96;99661.59;5076263;28;20042;-76
2021/08/14 10:05:58;;;;;;;15.93;7.38;;;;;;;36.44;11.81;99661.44;5043609;28;20047;-75
2021/08/14 10:08:25;;;;;;;19.42;8.10;;;;;;;36.72;11.76;99664.69;5060018;28;20130;-76
2021/08/14 10:10:51;;;;;;;14.43;8.45;;;;;;;36.39;11.37;99664.25;5076698;28;20510;-77
2021/08/14 10:13:18;;;;;;;15.60;7.85;;;;;;;36.79;11.13;99669.94;5076583;28;20051;-77
2021/08/14 10:15:44;;;;;;;13.77;7.57;;;;;;;36.60;10.57;99661.41;5076623;28;20047;-80
2021/08/14 10:18:10;;;;;;;12.57;6.97;;;;;;;36.38;10.47;99658.97;5059933;28;20044;-76
2021/08/14 10:20:36;;;;;;;17.13;7.53;;;;;;;36.21;10.87;99662.09;5042803;28;20131;-76
2021/08/14 10:23:06;;;;;;;12.65;7.60;;;;;;;36.26;10.48;99662.09;5075999;28;20040;-78
2021/08/14 10:25:35;;;;;;;15.65;8.10;;;;;;;36.39;10.30;99672.59;5043151;28;20044;-78
2021/08/14 10:28:03;;;;;;;13.95;7.03;;;;;;;37.07;10.81;99648.84;5092982;28;20059;-76
2021/08/14 10:30:41;;;;;;;13.80;7.20;;;;;;;37.53;10.81;99645.69;5076213;28;20043;-78
2021/08/14 10:33:08;;;;;;;15.35;7.45;;;;;;;37.71;9.74;99653.31;5075630;28;20139;-77
2021/08/14 10:35:37;;;;;;;17.15;7.47;;;;;;;38.03;10.10;99643.53;5076710;28;20071;-78
2021/08/14 10:38:04;;;;;;;11.13;7.15;;;;;;;37.98;9.62;99643.59;5076319;28;20055;-79
2021/08/14 10:40:59;;;;;;;11.07;7.07;;;;;;;38.39;10.45;99647.56;5079465;28;20513;-77
2021/08/14 10:43:53;;;;;;;13.30;7.22;;;;;;;38.66;9.72;99639.66;5059379;28;20052;-77
2021/08/14 10:46:34;;;;;;;10.82;6.60;;;;;;;38.96;10.25;99644.81;5113953;28;20101;-77
2021/08/14 10:49:00;;;;;;;10.77;6.55;;;;;;;38.78;9.15;99638.09;5114264;28;20142;-77
2021/08/14 10:51:48;;;;;;;13.20;7.80;;;;;;;38.88;9.88;99630.69;5095578;28;20051;-80
2021/08/14 10:54:40;;;;;;;13.90;6.30;;;;;;;38.98;9.07;99636.13;5114274;28;20059;-77
2021/08/14 10:57:10;;;;;;;11.35;6.38;;;;;;;38.15;9.06;99632.78;5050062;28;20040;-76
2021/08/14 10:59:36;;;;;;;13.18;6.90;;;;;;;38.20;9.17;99641.06;5112596;28;20055;-77
2021/08/14 11:02:08;;;;;;;15.45;6.93;;;;;;;38.51;9.49;99621.16;5095555;28;20173;-77
2021/08/14 11:04:35;;;;;;;13.63;7.10;;;;;;;38.75;9.27;99633.09;5113735;28;20040;-79
2021/08/14 11:07:16;;;;;;;11.73;6.72;;;;;;;39.27;9.12;99636.78;5112430;28;20089;-78
2021/08/14 11:09:43;;;;;;;16.35;7.10;;;;;;;39.07;9.25;99623.94;5113828;28;20045;-77
2021/08/14 11:12:09;;;;;;;12.10;6.75;;;;;;;38.52;9.66;99629.25;5061966;28;20513;-75
2021/08/14 11:14:45;;;;;;;15.10;6.97;;;;;;;39.37;9.60;99615.38;5078763;28;20048;-77
2021/08/14 11:17:12;;;;;;;12.55;6.82;;;;;;;39.63;9.07;99608.16;5079106;28;20097;-76
2021/08/14 11:19:48;;;;;;;10.77;6.40;;;;;;;39.87;9.39;99616.41;5095282;28;20134;-84
2021/08/14 11:22:17;;;;;;;8.88;6.57;;;;;;;40.40;9.54;99617.81;5079141;28;20292;-79
2021/08/14 11:24:43;;;;;;;13.38;7.55;;;;;;;40.98;8.95;99608.66;5112889;28;20494;-79